Time;durP1;ratioP1;P1;durP2;ratioP2;P2;SDS_P1;SDS_P2;PMS_P1;PMS_P2;Temp;Humidity;BMP_temperature;BMP_pressure;BME280_temperature;BME280_humidity;BME280_pressure;Samples;Min_cycle;Max_cycle;Signal;HPM_P1;HPM_P2
2021/04/12 00:00:47;;;;;;;147.22;58.17;;;;;;;4.98;55.84;100435.34;1821390;78;21165;-73
2021/04/12 00:03:28;;;;;;;85.77;35.25;;;;;;;4.95;55.76;100433.09;1806348;79;21190;-73
2021/04/12 00:06:13;;;;;;;114.12;46.08;;;;;;;4.91;55.71;100434.72;1822183;78;21567;-73
2021/04/12 00:09:00;;;;;;;90.10;38.83;;;;;;;4.87;55.90;100436.61;1822101;78;20948;-74
2021/04/12 00:11:54;;;;;;;87.08;36.75;;;;;;;4.82;56.82;100433.83;1795490;78;21003;-73
2021/04/12 00:14:36;;;;;;;87.10;37.35;;;;;;;4.76;56.41;100438.94;1812392;79;21021;-74
2021/04/12 00:17:22;;;;;;;83.78;36.83;;;;;;;4.73;56.68;100446.28;1824453;78;21587;-73
2021/04/12 00:20:09;;;;;;;84.87;37.63;;;;;;;4.70;56.57;100436.72;1773807;78;20947;-73
2021/04/12 00:22:45;;;;;;;101.85;40.05;;;;;;;4.68;56.46;100438.05;1812543;79;20991;-74
2021/04/12 00:25:40;;;;;;;100.12;38.55;;;;;;;4.68;56.70;100427.95;1872793;76;22712;-72
2021/04/12 00:28:37;;;;;;;89.77;36.95;;;;;;;4.59;56.58;100428.95;1804031;78;21106;-72
2021/04/12 00:31:34;;;;;;;85.70;36.13;;;;;;;4.60;56.56;100426.52;1819962;77;22708;-71
2021/04/12 00:34:36;;;;;;;95.12;37.60;;;;;;;4.54;56.64;100423.44;1754139;81;21059;-72
2021/04/12 00:37:13;;;;;;;85.03;35.78;;;;;;;4.49;56.57;100422.02;1765595;81;21213;-71
2021/04/12 00:43:49;;;;;;;81.40;33.83;;;;;;;4.37;57.34;100425.73;1766097;81;21027;-71
2021/04/12 00:47:09;;;;;;;91.25;35.98;;;;;;;4.34;57.63;100423.52;1756421;81;20972;-72
2021/04/12 00:49:48;;;;;;;70.47;32.08;;;;;;;4.32;57.22;100422.95;1766125;81;20923;-72
2021/04/12 00:52:59;;;;;;;69.10;31.85;;;;;;;4.28;56.79;100423.72;1755167;81;22219;-72
2021/04/12 00:55:53;;;;;;;79.40;33.85;;;;;;;4.22;56.64;100424.19;1719545;83;21393;-73
2021/04/12 00:59:22;;;;;;;76.70;32.70;;;;;;;4.17;57.25;100418.14;1719641;83;21054;-72
2021/04/12 01:02:20;;;;;;;84.50;33.58;;;;;;;4.14;57.55;100419.45;1735701;82;21601;-72
2021/04/12 01:05:18;;;;;;;61.30;30.65;;;;;;;4.12;57.85;100416.72;1735793;82;21121;-71
2021/04/12 01:08:19;;;;;;;72.00;33.25;;;;;;;4.10;57.84;100409.31;1735525;82;21208;-72
2021/04/12 01:12:05;;;;;;;64.62;32.28;;;;;;;4.09;58.72;100407.68;1692947;84;20971;-72
2021/04/12 01:15:18;;;;;;;59.50;30.88;;;;;;;4.06;58.44;100415.02;1706388;84;21586;-71
2021/04/12 01:18:40;;;;;;;58.25;29.27;;;;;;;4.04;58.22;100413.91;1706432;83;21499;-72
2021/04/12 01:21:58;;;;;;;55.85;30.10;;;;;;;4.03;58.21;100408.71;1706465;83;21633;-72
2021/04/12 01:25:30;;;;;;;60.90;29.85;;;;;;;3.98;58.43;100410.81;1706248;83;21165;-71
2021/04/12 01:28:44;;;;;;;66.33;30.62;;;;;;;3.94;58.81;100399.58;1706370;83;21137;-71
2021/04/12 01:32:04;;;;;;;56.13;30.77;;;;;;;3.92;58.27;100399.03;1687669;83;21089;-72
2021/04/12 01:34:58;;;;;;;60.48;31.27;;;;;;;3.90;58.25;100394.37;1732029;82;21156;-72
2021/04/12 01:37:47;;;;;;;58.50;30.27;;;;;;;3.87;58.25;100387.50;1738332;82;21057;-69
2021/04/12 01:41:02;;;;;;;56.85;30.77;;;;;;;3.86;57.96;100383.14;1738525;82;21419;-71
2021/04/12 01:44:01;;;;;;;64.92;31.93;;;;;;;3.84;57.80;100385.84;1738002;82;21101;-72
2021/04/12 01:47:02;;;;;;;62.78;30.35;;;;;;;3.80;57.99;100389.62;1724660;82;20939;-71
2021/04/12 01:50:09;;;;;;;61.68;31.77;;;;;;;3.76;58.11;100379.75;1719560;82;21042;-72
2021/04/12 01:53:44;;;;;;;57.75;30.68;;;;;;;3.74;58.07;100372.36;1734704;82;21118;-72
2021/04/12 01:57:45;;;;;;;65.35;31.50;;;;;;;3.71;58.62;100367.42;1737978;82;20983;-71
2021/04/12 02:01:26;;;;;;;67.67;31.65;;;;;;;3.69;58.53;100360.55;1737856;82;20990;-71
2021/04/12 02:04:34;;;;;;;71.42;31.70;;;;;;;3.67;58.74;100360.81;1726273;82;21110;-70
2021/04/12 02:07:52;;;;;;;73.17;33.67;;;;;;;3.65;58.85;100356.98;1737263;82;21099;-70
2021/04/12 02:11:18;;;;;;;73.85;34.03;;;;;;;3.69;58.78;100355.10;1738144;82;21034;-71
2021/04/12 02:14:28;;;;;;;71.90;33.98;;;;;;;3.71;58.63;100351.59;1738017;82;21261;-72
2021/04/12 02:17:21;;;;;;;67.53;33.00;;;;;;;3.74;58.52;100344.27;1738020;82;21003;-71
2021/04/12 02:20:09;;;;;;;74.95;34.73;;;;;;;3.76;58.71;100342.11;1738084;82;21096;-71
2021/04/12 02:23:32;;;;;;;86.65;38.60;;;;;;;3.79;58.83;100340.23;1731433;82;21086;-73
2021/04/12 02:26:45;;;;;;;79.72;36.80;;;;;;;3.81;58.85;100343.54;1737978;82;21046;-73
2021/04/12 02:29:41;;;;;;;78.55;37.17;;;;;;;3.84;58.61;100341.66;1737008;82;21393;-72
2021/04/12 02:36:39;;;;;;;65.72;33.95;;;;;;;3.81;58.81;100347.62;1694233;84;21174;-73
2021/04/12 02:39:53;;;;;;;69.27;33.38;;;;;;;3.76;59.65;100342.11;1776505;79;22722;-71
2021/04/12 02:42:46;;;;;;;82.50;36.25;;;;;;;3.67;60.04;100336.84;1749553;82;20869;-71
2021/04/12 02:46:11;;;;;;;82.27;35.85;;;;;;;3.63;59.46;100339.23;1749337;82;20893;-74
2021/04/12 02:49:05;;;;;;;81.30;37.65;;;;;;;3.58;59.93;100333.20;1744485;82;20999;-73
2021/04/12 02:52:02;;;;;;;80.85;36.35;;;;;;;3.56;60.06;100333.98;1749404;82;20939;-71
2021/04/12 02:56:03;;;;;;;81.60;36.15;;;;;;;3.57;60.04;100333.42;1747347;82;21000;-72
2021/04/12 02:59:31;;;;;;;76.07;35.63;;;;;;;3.56;59.94;100324.97;1738319;82;20999;-73
2021/04/12 03:02:41;;;;;;;82.02;37.42;;;;;;;3.54;59.75;100329.31;1749533;82;21815;-72
2021/04/12 03:05:56;;;;;;;75.52;35.95;;;;;;;3.52;59.81;100324.64;1744097;82;21500;-70
2021/04/12 03:08:56;;;;;;;85.22;39.75;;;;;;;3.50;59.88;100319.98;1741604;81;21001;-71
2021/04/12 03:16:34;;;;;;;82.47;36.58;;;;;;;3.48;59.76;100311.26;1719406;83;21132;-71
2021/04/12 03:19:51;;;;;;;75.70;37.65;;;;;;;3.48;59.81;100304.45;1719765;83;22282;-71
2021/04/12 03:22:46;;;;;;;77.35;36.75;;;;;;;3.47;59.63;100304.14;1719609;83;21494;-72
2021/04/12 03:26:36;;;;;;;85.72;37.30;;;;;;;3.44;59.53;100312.30;1719540;83;21057;-74
2021/04/12 03:29:49;;;;;;;81.22;38.90;;;;;;;3.50;59.99;100302.27;1819979;77;22695;-71
2021/04/12 03:32:49;;;;;;;92.30;39.53;;;;;;;3.48;60.06;100299.00;1786222;78;21503;-72
2021/04/12 03:35:47;;;;;;;93.92;39.88;;;;;;;3.49;60.84;100304.72;1793851;78;21194;-72
2021/04/12 03:38:36;;;;;;;78.20;39.38;;;;;;;3.48;60.59;100303.08;1823459;78;21116;-71
2021/04/12 03:41:51;;;;;;;74.70;38.33;;;;;;;3.47;60.74;100300.05;1762090;80;21625;-71
2021/04/12 03:48:47;;;;;;;79.60;37.53;;;;;;;3.47;61.66;100302.25;1787628;80;20935;-73
2021/04/12 03:52:10;;;;;;;73.72;37.03;;;;;;;3.52;61.51;100296.86;1674586;84;22114;-71
2021/04/12 03:54:51;;;;;;;76.47;37.15;;;;;;;3.59;61.95;100304.02;1766222;81;21056;-71
2021/04/12 03:58:09;;;;;;;77.82;36.20;;;;;;;3.67;61.56;100297.31;1847590;77;22761;-71
2021/04/12 04:01:56;;;;;;;85.85;40.78;;;;;;;3.67;61.29;100297.31;1823955;78;20925;-74
2021/04/12 04:04:49;;;;;;;80.42;40.00;;;;;;;3.72;61.47;100294.09;1823677;78;21199;-70
2021/04/12 04:11:33;;;;;;;86.92;40.17;;;;;;;3.85;60.21;100288.80;1770554;80;21063;-72
2021/04/12 04:14:32;;;;;;;86.90;39.78;;;;;;;3.89;59.82;100291.27;1791157;80;20968;-73
2021/04/12 04:17:49;;;;;;;95.17;39.65;;;;;;;3.95;60.20;100294.89;1791152;80;20940;-71
2021/04/12 04:20:31;;;;;;;76.12;39.73;;;;;;;4.02;60.18;100290.59;1791202;80;21803;-74
2021/04/12 04:24:01;;;;;;;95.28;42.05;;;;;;;4.11;60.24;100289.59;1766716;80;21560;-72
2021/04/12 04:26:52;;;;;;;94.85;41.25;;;;;;;4.18;60.33;100294.84;1791158;80;21580;-72
2021/04/12 04:30:02;;;;;;;88.25;41.40;;;;;;;4.25;60.53;100288.62;1790384;80;21177;-72
2021/04/12 04:33:11;;;;;;;98.05;42.10;;;;;;;4.34;60.08;100288.97;1791162;79;21102;-71
2021/04/12 04:37:09;;;;;;;90.77;41.02;;;;;;;4.43;60.13;100287.97;1791140;80;20992;-70
2021/04/12 04:40:47;;;;;;;87.50;39.23;;;;;;;4.54;60.01;100286.95;1789491;80;21174;-73
2021/04/12 04:43:48;;;;;;;86.42;38.55;;;;;;;4.67;60.05;100287.61;1791139;80;21043;-71
2021/04/12 04:46:58;;;;;;;82.70;39.35;;;;;;;4.76;59.57;100281.92;1790955;80;21121;-72
2021/04/12 04:50:15;;;;;;;81.95;38.17;;;;;;;4.87;59.54;100285.56;1685866;83;21076;-71
2021/04/12 04:53:37;;;;;;;84.77;39.83;;;;;;;4.98;59.24;100287.83;1726337;83;21997;-69
2021/04/12 04:56:50;;;;;;;92.33;41.08;;;;;;;5.11;59.19;100276.44;1781308;80;21036;-69
2021/04/12 04:59:58;;;;;;;82.72;41.35;;;;;;;5.28;59.27;100282.25;1758298;81;21135;-71
2021/04/12 05:03:05;;;;;;;94.50;42.40;;;;;;;5.45;59.12;100282.59;1760097;81;21127;-72
2021/04/12 05:06:13;;;;;;;98.90;39.20;;;;;;;5.62;58.68;100276.09;1760170;81;21135;-71
2021/04/12 05:09:19;;;;;;;82.22;38.70;;;;;;;5.80;58.40;100276.97;1727907;81;21545;-72
2021/04/12 05:12:18;;;;;;;92.22;36.70;;;;;;;6.00;57.93;100273.19;1759195;81;21067;-71
2021/04/12 05:15:16;;;;;;;72.22;34.48;;;;;;;6.18;57.65;100271.87;1757522;81;21080;-72
2021/04/12 05:18:13;;;;;;;74.92;35.80;;;;;;;6.36;57.01;100263.69;1759488;81;21107;-72
2021/04/12 05:21:30;;;;;;;76.92;37.25;;;;;;;6.56;56.16;100262.86;1759712;81;21081;-70
2021/04/12 05:24:37;;;;;;;76.55;35.68;;;;;;;6.76;55.71;100257.08;1759668;81;21430;-71
2021/04/12 05:28:09;;;;;;;85.50;36.15;;;;;;;6.94;55.19;100257.61;1757338;81;20957;-72
2021/04/12 05:31:42;;;;;;;74.12;33.85;;;;;;;7.22;54.85;100249.84;1819873;77;22831;-72
2021/04/12 05:34:27;;;;;;;66.60;35.08;;;;;;;7.28;54.65;100248.70;1756494;81;21568;-72
2021/04/12 05:38:00;;;;;;;72.58;35.15;;;;;;;7.45;54.36;100246.73;1762135;81;21093;-73
2021/04/12 05:41:01;;;;;;;82.82;32.85;;;;;;;7.59;54.26;100249.70;1682362;81;21622;-69
2021/04/12 05:44:15;;;;;;;65.83;32.13;;;;;;;7.73;53.17;100233.45;1756445;81;21571;-73
2021/04/12 05:47:13;;;;;;;77.20;35.88;;;;;;;7.87;52.81;100236.35;1766102;81;21504;-73
2021/04/12 05:50:16;;;;;;;86.20;34.80;;;;;;;8.00;51.88;100228.86;1756424;81;21004;-72
2021/04/12 05:53:05;;;;;;;;;;;;;;;8.13;51.89;100239.76;1768217;81;21162;-71
2021/04/12 05:56:23;;;;;;;69.00;30.85;;;;;;;8.24;51.43;100244.60;1766210;81;20707;-72
2021/04/12 05:59:28;;;;;;;67.60;30.32;;;;;;;8.34;51.53;100242.89;1756577;81;21532;-71
2021/04/12 06:02:26;;;;;;;62.45;29.50;;;;;;;8.48;51.04;100243.03;1766102;81;21029;-72
2021/04/12 06:05:54;;;;;;;63.73;28.15;;;;;;;8.64;50.63;100238.26;1719639;83;21098;-73
2021/04/12 06:08:40;;;;;;;55.12;28.23;;;;;;;8.81;49.86;100242.48;1707912;83;21191;-72
2021/04/12 06:11:54;;;;;;;76.80;28.85;;;;;;;8.93;49.30;100240.17;1716988;83;21203;-73
2021/04/12 06:15:08;;;;;;;77.95;29.35;;;;;;;9.04;48.73;100233.19;1704980;84;21129;-74
2021/04/12 06:18:21;;;;;;;52.30;26.37;;;;;;;9.14;48.33;100231.70;1716975;83;21258;-72
2021/04/12 06:21:21;;;;;;;54.80;25.45;;;;;;;9.24;47.94;100231.58;1595695;90;21215;-74
2021/04/12 06:24:58;;;;;;;55.78;25.57;;;;;;;9.33;47.49;100225.42;1705120;84;21293;-73
2021/04/12 06:27:50;;;;;;;55.48;25.05;;;;;;;9.41;47.41;100221.19;1693425;83;21225;-71
2021/04/12 06:31:22;;;;;;;50.98;25.43;;;;;;;9.53;47.20;100226.27;1692533;84;21234;-72
2021/04/12 06:34:38;;;;;;;49.83;24.98;;;;;;;9.65;47.03;100230.78;1704209;84;21185;-73
2021/04/12 06:38:00;;;;;;;52.95;24.57;;;;;;;9.94;46.55;100225.69;1888518;76;22618;-73
2021/04/12 06:40:48;;;;;;;45.45;23.32;;;;;;;10.05;46.04;100228.27;1775251;80;20873;-73
2021/04/12 06:44:03;;;;;;;46.77;22.42;;;;;;;10.22;45.32;100224.97;1773736;81;21344;-73
2021/04/12 06:47:30;;;;;;;52.70;23.57;;;;;;;10.38;45.40;100228.84;1775052;80;20987;-73
2021/04/12 06:50:57;;;;;;;43.73;21.33;;;;;;;10.57;45.02;100221.95;1774414;80;21010;-72
2021/04/12 06:53:50;;;;;;;53.92;23.87;;;;;;;10.75;44.35;100217.48;1773694;81;21039;-73
2021/04/12 06:56:57;;;;;;;52.83;24.20;;;;;;;10.90;43.74;100210.05;1775154;80;21082;-73
2021/04/12 06:59:57;;;;;;;54.42;23.18;;;;;;;11.00;42.89;100207.10;1773960;81;20928;-73
2021/04/12 07:03:22;;;;;;;50.92;20.77;;;;;;;11.10;42.92;100203.31;1775075;80;20950;-72
2021/04/12 07:06:46;;;;;;;42.38;19.67;;;;;;;11.22;42.74;100203.35;1710135;83;20908;-73
2021/04/12 07:10:30;;;;;;;47.95;19.95;;;;;;;11.33;42.43;100203.38;1797817;78;20956;-71
2021/04/12 07:13:31;;;;;;;;;;;;;;;11.47;42.32;100193.71;1841309;78;20991;-73
2021/04/12 07:16:50;;;;;;;33.92;18.23;;;;;;;11.59;41.71;100197.31;1825784;78;21382;-71
2021/04/12 07:20:06;;;;;;;34.50;19.27;;;;;;;11.67;40.57;100185.53;1837804;78;21066;-73
2021/04/12 07:23:48;;;;;;;45.60;18.75;;;;;;;11.75;41.06;100188.69;1838659;78;20976;-73
2021/04/12 07:26:51;;;;;;;35.63;16.45;;;;;;;11.89;41.13;100182.53;1838728;78;21149;-72
2021/04/12 07:29:39;;;;;;;40.30;19.65;;;;;;;12.01;40.36;100181.18;1838757;78;20991;-71
2021/04/12 07:32:46;;;;;;;37.70;17.23;;;;;;;12.11;39.92;100180.14;1837663;78;21201;-73
2021/04/12 07:36:14;;;;;;;38.73;17.87;;;;;;;12.22;40.18;100175.98;1838473;78;20979;-72
2021/04/12 07:39:24;;;;;;;34.55;17.42;;;;;;;12.38;39.06;100179.17;1839000;78;20939;-72
2021/04/12 07:42:39;;;;;;;30.55;16.27;;;;;;;12.44;38.19;100161.88;1838932;78;21122;-74
2021/04/12 07:45:55;;;;;;;28.65;14.93;;;;;;;12.51;38.00;100162.80;1839031;78;20920;-73
2021/04/12 07:53:17;;;;;;;37.05;16.20;;;;;;;12.75;37.82;100157.47;1804745;79;21137;-72
2021/04/12 07:56:40;;;;;;;32.28;15.45;;;;;;;12.95;37.59;100161.59;1778462;79;21177;-71
2021/04/12 07:59:41;;;;;;;30.32;15.63;;;;;;;13.06;37.48;100152.45;1802806;79;21149;-71
2021/04/12 08:02:48;;;;;;;31.42;15.00;;;;;;;13.19;37.32;100159.53;1803139;79;21157;-74
2021/04/12 08:06:02;;;;;;;30.30;15.88;;;;;;;13.32;36.49;100139.23;1745249;79;22392;-72
2021/04/12 08:13:44;;;;;;;30.70;14.35;;;;;;;13.54;35.82;100138.87;1804743;79;21187;-71
2021/04/12 08:16:55;;;;;;;26.33;14.47;;;;;;;13.59;34.80;100137.89;1804977;79;21559;-71
2021/04/12 08:19:40;;;;;;;45.15;16.02;;;;;;;13.58;33.59;100137.06;1803981;79;21130;-70
2021/04/12 08:22:34;;;;;;;30.77;15.88;;;;;;;13.58;34.68;100132.13;1804840;79;21199;-71
